createdAt,value
2019-02-15T00:00:58.626Z,97.50
2019-02-15T00:03:27.068Z,97.97
2019-02-15T00:05:55.452Z,98.37
2019-02-15T00:08:23.827Z,92.57
2019-02-15T00:10:52.224Z,104.65
2019-02-15T00:13:20.629Z,92.70
2019-02-15T00:15:49.032Z,91.92
2019-02-15T00:18:35.622Z,92.57
2019-02-15T00:21:05.637Z,88.42
2019-02-15T00:23:34.010Z,92.35
2019-02-15T00:26:02.428Z,89.50
2019-02-15T00:28:30.808Z,88.30
2019-02-15T00:30:59.203Z,88.50
2019-02-15T00:33:27.597Z,93.00
2019-02-15T00:35:56.195Z,91.47
2019-02-15T00:38:24.591Z,82.05
2019-02-15T00:40:53.000Z,82.65
2019-02-15T00:43:22.532Z,87.65
2019-02-15T00:46:09.348Z,88.20
2019-02-15T00:48:37.731Z,83.55
2019-02-15T00:51:13.921Z,85.22
2019-02-15T00:53:43.990Z,83.00
2019-02-15T00:56:16.449Z,86.85
2019-02-15T00:58:55.001Z,81.37
2019-02-15T01:01:27.708Z,90.87
2019-02-15T01:03:57.787Z,85.17
2019-02-15T01:06:27.820Z,74.40
2019-02-15T01:09:00.560Z,81.15
2019-02-15T01:11:45.692Z,79.87
2019-02-15T01:14:14.108Z,80.25
2019-02-15T01:16:42.490Z,76.37
2019-02-15T01:19:10.868Z,78.62
2019-02-15T01:21:39.283Z,77.08
2019-02-15T01:24:07.657Z,80.22
2019-02-15T01:26:37.713Z,79.03
2019-02-15T01:29:24.484Z,77.27
2019-02-15T01:32:00.564Z,78.28
2019-02-15T01:34:33.514Z,81.82
2019-02-15T01:37:03.575Z,78.22
2019-02-15T01:39:39.476Z,76.70
2019-02-15T01:42:18.497Z,84.03
2019-02-15T01:44:48.515Z,74.85
2019-02-15T01:47:17.660Z,74.30
2019-02-15T01:49:46.056Z,78.33
2019-02-15T01:52:14.473Z,74.87
2019-02-15T01:54:42.848Z,74.53
2019-02-15T01:57:11.241Z,74.30
2019-02-15T01:59:39.651Z,73.90
2019-02-15T02:02:08.035Z,70.30
2019-02-15T02:04:36.592Z,79.58
2019-02-15T02:07:04.969Z,72.50
2019-02-15T02:09:33.371Z,72.50
2019-02-15T02:12:01.767Z,79.12
2019-02-15T02:14:30.165Z,76.15
2019-02-15T02:16:58.555Z,73.57
2019-02-15T02:19:26.962Z,71.62
2019-02-15T02:21:55.378Z,73.05
2019-02-15T02:24:23.795Z,77.15
2019-02-15T02:26:52.199Z,75.47
2019-02-15T02:29:20.584Z,75.45
2019-02-15T02:31:48.979Z,76.05
2019-02-15T02:34:17.407Z,78.83
2019-02-15T02:36:53.567Z,76.55
2019-02-15T02:39:22.033Z,73.45
2019-02-15T02:41:50.405Z,76.20
2019-02-15T02:44:18.806Z,73.47
2019-02-15T02:46:47.211Z,76.75
2019-02-15T02:49:16.088Z,74.87
2019-02-15T02:51:44.492Z,70.72
2019-02-15T02:54:12.859Z,75.80
2019-02-15T02:56:41.277Z,70.08
2019-02-15T02:59:09.642Z,78.17
2019-02-15T03:01:38.066Z,75.52
2019-02-15T03:04:06.433Z,70.57
2019-02-15T03:06:34.841Z,70.95
2019-02-15T03:09:04.587Z,71.87
2019-02-15T03:11:33.008Z,75.75
2019-02-15T03:14:11.073Z,75.70
2019-02-15T03:16:31.437Z,72.37
2019-02-15T03:18:59.869Z,73.60
2019-02-15T03:21:28.230Z,72.20
2019-02-15T03:23:56.644Z,69.07
2019-02-15T03:26:25.009Z,81.37
2019-02-15T03:28:53.394Z,69.58
2019-02-15T03:31:21.790Z,67.50
2019-02-15T03:33:50.188Z,68.28
2019-02-15T03:36:20.204Z,70.70
2019-02-15T03:38:50.249Z,72.15
2019-02-15T03:41:29.490Z,75.08
2019-02-15T03:43:57.899Z,70.28
2019-02-15T03:46:26.483Z,73.10
2019-02-15T03:48:54.875Z,68.42
2019-02-15T03:51:23.247Z,70.87
2019-02-15T03:53:51.725Z,61.23
2019-02-15T03:56:20.131Z,67.37
2019-02-15T03:58:48.509Z,69.35
2019-02-15T04:01:16.886Z,70.30
2019-02-15T04:03:45.292Z,69.75
2019-02-15T04:06:13.677Z,69.25
2019-02-15T04:08:42.073Z,72.22
2019-02-15T04:11:10.485Z,66.67
2019-02-15T04:13:38.856Z,70.97
2019-02-15T04:16:07.256Z,73.95
2019-02-15T04:18:35.678Z,70.92
2019-02-15T04:21:04.062Z,68.72
2019-02-15T04:23:32.416Z,81.60
2019-02-15T04:26:00.934Z,92.08
2019-02-15T04:28:29.323Z,85.00
2019-02-15T04:30:57.708Z,80.67
2019-02-15T04:33:26.098Z,76.25
2019-02-15T04:35:54.621Z,87.53
2019-02-15T04:38:23.041Z,72.82
2019-02-15T04:40:51.474Z,73.90
2019-02-15T04:43:19.824Z,77.50
2019-02-15T04:45:48.285Z,69.00
2019-02-15T04:48:16.603Z,70.62
2019-02-15T04:50:45.028Z,79.50
2019-02-15T04:53:13.408Z,74.42
2019-02-15T04:55:41.830Z,69.92
2019-02-15T04:58:10.307Z,81.70
2019-02-15T05:00:38.680Z,77.65
2019-02-15T05:03:07.054Z,70.83
2019-02-15T05:05:35.467Z,69.35
2019-02-15T05:08:03.881Z,68.55
2019-02-15T05:10:32.259Z,70.78
2019-02-15T05:13:00.682Z,74.95
2019-02-15T05:15:29.047Z,69.70
2019-02-15T05:17:57.447Z,73.40
2019-02-15T05:20:25.837Z,71.65
2019-02-15T05:22:54.357Z,69.03
2019-02-15T05:25:22.743Z,74.32
2019-02-15T05:27:51.119Z,77.08
2019-02-15T05:30:19.511Z,77.45
2019-02-15T05:32:47.899Z,68.97
2019-02-15T05:35:16.314Z,68.85
2019-02-15T05:37:44.702Z,66.53
2019-02-15T05:40:13.107Z,70.37
2019-02-15T05:42:41.499Z,67.90
2019-02-15T05:45:09.929Z,77.22
2019-02-15T05:47:38.333Z,74.72
2019-02-15T05:50:07.351Z,79.12
2019-02-15T05:52:35.744Z,85.77
2019-02-15T05:55:05.186Z,78.75
2019-02-15T05:57:33.599Z,83.27
2019-02-15T06:00:01.974Z,81.85
2019-02-15T06:02:30.406Z,87.47
2019-02-15T06:04:58.782Z,77.37
2019-02-15T06:07:27.173Z,81.57
2019-02-15T06:09:55.566Z,81.67
2019-02-15T06:12:23.997Z,77.72
2019-02-15T06:14:52.375Z,74.87
2019-02-15T06:17:20.751Z,84.22
2019-02-15T06:19:49.162Z,80.80
2019-02-15T06:22:17.546Z,79.47
2019-02-15T06:24:45.938Z,78.45
2019-02-15T06:27:14.339Z,83.00
2019-02-15T06:29:42.714Z,82.72
2019-02-15T06:32:11.124Z,83.22
2019-02-15T06:34:39.525Z,85.87
2019-02-15T06:37:07.908Z,96.22
2019-02-15T06:39:36.352Z,78.00
2019-02-15T06:42:04.716Z,90.90
2019-02-15T06:44:33.082Z,86.40
2019-02-15T06:47:01.503Z,92.33
2019-02-15T06:49:29.878Z,84.95
2019-02-15T06:51:58.272Z,84.50
2019-02-15T06:54:26.653Z,82.12
2019-02-15T06:56:55.085Z,92.57
2019-02-15T06:59:37.166Z,86.12
2019-02-15T07:02:19.210Z,101.62
2019-02-15T07:04:58.339Z,102.90
2019-02-15T07:07:26.744Z,101.00
2019-02-15T07:09:55.137Z,91.25
2019-02-15T07:12:23.520Z,90.32
2019-02-15T07:14:51.923Z,89.92
2019-02-15T07:17:20.300Z,96.42
2019-02-15T07:19:48.713Z,90.30
2019-02-15T07:22:17.124Z,96.95
2019-02-15T07:24:47.210Z,99.87
2019-02-15T07:27:15.810Z,92.92
2019-02-15T07:29:44.186Z,89.80
2019-02-15T07:32:12.571Z,85.50
2019-02-15T07:34:41.001Z,77.58
2019-02-15T07:37:09.383Z,70.75
2019-02-15T07:39:37.803Z,74.32
2019-02-15T07:42:06.184Z,77.95
2019-02-15T07:44:34.563Z,77.70
2019-02-15T07:47:02.987Z,70.55
2019-02-15T07:49:31.373Z,68.17
2019-02-15T07:51:59.780Z,65.03
2019-02-15T07:54:28.179Z,65.72
2019-02-15T07:56:56.605Z,66.57
2019-02-15T07:59:24.990Z,66.45
2019-02-15T08:02:01.651Z,61.10
2019-02-15T08:04:23.412Z,58.63
2019-02-15T08:06:51.912Z,52.20
2019-02-15T08:09:20.287Z,59.27
2019-02-15T08:11:48.666Z,59.93
2019-02-15T08:14:17.691Z,46.92
2019-02-15T08:16:46.259Z,52.98
2019-02-15T08:19:14.673Z,55.03
2019-02-15T08:21:43.043Z,48.05
2019-02-15T08:24:11.444Z,45.83
2019-02-15T08:26:39.838Z,39.65
2019-02-15T08:29:08.233Z,40.85
2019-02-15T08:31:36.624Z,39.67
2019-02-15T08:34:05.224Z,46.73
2019-02-15T08:36:33.627Z,43.45
2019-02-15T08:39:02.001Z,40.00
2019-02-15T08:41:30.414Z,39.45
2019-02-15T08:43:58.787Z,37.63
2019-02-15T08:46:27.197Z,33.98
2019-02-15T08:48:55.646Z,38.08
2019-02-15T08:51:24.095Z,35.45
2019-02-15T08:53:52.479Z,39.23
2019-02-15T08:56:20.854Z,36.65
2019-02-15T08:58:49.258Z,36.33
2019-02-15T09:01:17.776Z,33.90
2019-02-15T09:03:46.157Z,30.97
2019-02-15T09:06:14.528Z,38.50
2019-02-15T09:08:42.911Z,34.00
2019-02-15T09:11:11.293Z,28.47
2019-02-15T09:13:39.704Z,30.52
2019-02-15T09:16:10.358Z,41.33
2019-02-15T09:18:38.154Z,33.63
2019-02-15T09:21:06.671Z,36.45
2019-02-15T09:23:35.061Z,34.85
2019-02-15T09:26:03.422Z,34.15
2019-02-15T09:28:33.486Z,29.20
2019-02-15T09:31:01.864Z,30.68
2019-02-15T09:33:30.252Z,35.98
2019-02-15T09:35:58.648Z,28.83
2019-02-15T09:38:27.027Z,29.40
2019-02-15T09:40:55.457Z,28.65
2019-02-15T09:43:23.834Z,31.87
2019-02-15T09:45:52.256Z,27.02
2019-02-15T09:48:20.724Z,30.50
2019-02-15T09:50:49.121Z,29.75
2019-02-15T09:53:17.513Z,29.98
2019-02-15T09:55:45.911Z,31.30
2019-02-15T09:58:16.340Z,26.30
2019-02-15T10:00:46.036Z,24.85
2019-02-15T10:03:14.398Z,25.43
2019-02-15T10:05:42.811Z,22.37
2019-02-15T10:08:12.117Z,28.95
2019-02-15T10:10:40.549Z,24.00
2019-02-15T10:13:08.931Z,27.25
2019-02-15T10:15:37.357Z,27.42
2019-02-15T10:18:05.735Z,25.57
2019-02-15T10:20:34.104Z,26.40
2019-02-15T10:23:02.495Z,25.88
2019-02-15T10:25:30.925Z,24.37
2019-02-15T10:27:59.335Z,23.70
2019-02-15T10:30:27.752Z,24.90
2019-02-15T10:32:56.130Z,19.65
2019-02-15T10:35:24.545Z,24.07
2019-02-15T10:37:52.955Z,26.40
2019-02-15T10:40:21.334Z,25.88
2019-02-15T10:42:49.745Z,25.90
2019-02-15T10:45:18.120Z,24.70
2019-02-15T10:47:46.535Z,21.27
2019-02-15T10:50:15.491Z,22.22
2019-02-15T10:52:43.907Z,21.07
2019-02-15T10:55:12.284Z,29.60
2019-02-15T10:57:40.686Z,20.48
2019-02-15T11:00:14.011Z,20.08
2019-02-15T11:02:42.404Z,20.05
2019-02-15T11:05:11.147Z,33.10
2019-02-15T11:07:39.606Z,20.60
2019-02-15T11:10:09.261Z,20.32
2019-02-15T11:12:37.657Z,18.85
2019-02-15T11:15:14.152Z,23.05
2019-02-15T11:17:44.237Z,19.80
2019-02-15T11:20:14.838Z,19.42
2019-02-15T11:22:43.365Z,20.95
2019-02-15T11:25:11.937Z,22.77
2019-02-15T11:27:40.312Z,21.73
2019-02-15T11:30:14.113Z,23.25
2019-02-15T11:32:42.537Z,20.30
2019-02-15T11:35:12.195Z,25.43
2019-02-15T11:37:40.624Z,27.77
2019-02-15T11:40:11.935Z,23.25
2019-02-15T11:42:40.325Z,24.20
2019-02-15T11:45:11.048Z,22.73
2019-02-15T11:47:40.599Z,21.35
2019-02-15T11:50:11.234Z,24.43
2019-02-15T11:52:39.631Z,18.70
2019-02-15T11:55:10.569Z,24.20
2019-02-15T11:57:38.973Z,19.60
2019-02-15T12:00:18.438Z,17.90
2019-02-15T12:02:47.428Z,18.30
2019-02-15T12:05:16.044Z,20.70
2019-02-15T12:07:44.475Z,27.52
2019-02-15T12:10:14.152Z,21.17
2019-02-15T12:12:42.600Z,30.23
2019-02-15T12:15:11.112Z,15.98
2019-02-15T12:17:39.501Z,19.95
2019-02-15T12:20:10.460Z,25.75
2019-02-15T12:22:38.837Z,20.85
2019-02-15T12:25:08.007Z,19.80
2019-02-15T12:27:39.585Z,19.37
2019-02-15T12:30:10.780Z,19.65
2019-02-15T12:32:39.207Z,20.17
2019-02-15T12:35:09.254Z,18.02
2019-02-15T12:37:39.994Z,17.30
2019-02-15T12:40:09.921Z,18.98
2019-02-15T12:42:38.543Z,20.55
2019-02-15T12:45:14.876Z,20.55
2019-02-15T12:47:43.400Z,19.02
2019-02-15T12:50:21.436Z,16.37
2019-02-15T12:52:49.816Z,17.45
2019-02-15T12:55:18.223Z,15.85
2019-02-15T12:57:46.620Z,19.57
2019-02-15T13:00:16.104Z,20.37
2019-02-15T13:02:44.493Z,19.52
2019-02-15T13:05:13.739Z,19.48
2019-02-15T13:07:42.158Z,21.50
2019-02-15T13:10:13.245Z,20.57
2019-02-15T13:12:41.629Z,20.92
2019-02-15T13:15:11.454Z,18.52
2019-02-15T13:17:39.893Z,22.52
2019-02-15T13:20:09.519Z,18.57
2019-02-15T13:22:37.931Z,21.12
2019-02-15T13:25:07.372Z,21.73
2019-02-15T13:27:35.761Z,23.42
2019-02-15T13:30:09.670Z,19.40
2019-02-15T13:32:38.067Z,16.73
2019-02-15T13:35:09.371Z,22.20
2019-02-15T13:37:37.762Z,19.85
2019-02-15T13:40:07.968Z,17.42
2019-02-15T13:42:36.391Z,19.12
2019-02-15T13:45:07.773Z,20.92
2019-02-15T13:47:36.171Z,24.47
2019-02-15T13:50:06.807Z,20.00
2019-02-15T13:52:35.310Z,22.48
2019-02-15T13:55:04.100Z,21.30
2019-02-15T13:57:32.497Z,18.42
2019-02-15T14:00:00.883Z,20.08
2019-02-15T14:02:31.005Z,18.32
2019-02-15T14:04:59.579Z,23.20
2019-02-15T14:07:27.985Z,21.45
2019-02-15T14:09:56.406Z,19.12
2019-02-15T14:12:24.792Z,23.85
2019-02-15T14:14:53.202Z,21.23
2019-02-15T14:17:21.571Z,19.02
2019-02-15T14:19:50.003Z,18.20
2019-02-15T14:22:18.443Z,21.17
2019-02-15T14:24:46.900Z,28.27
2019-02-15T14:27:15.290Z,21.40
2019-02-15T14:29:43.696Z,22.98
2019-02-15T14:32:12.084Z,21.87
2019-02-15T14:34:40.510Z,24.02
2019-02-15T14:37:08.917Z,22.27
2019-02-15T14:39:37.384Z,22.13
2019-02-15T14:42:05.776Z,19.62
2019-02-15T14:44:34.178Z,18.98
2019-02-15T14:47:02.634Z,19.02
2019-02-15T14:49:31.078Z,21.50
2019-02-15T14:51:59.507Z,22.37
2019-02-15T14:54:27.939Z,21.48
2019-02-15T14:56:56.471Z,23.18
2019-02-15T14:59:24.789Z,19.35
2019-02-15T15:01:53.387Z,19.95
2019-02-15T15:04:21.766Z,20.08
2019-02-15T15:06:50.175Z,21.60
2019-02-15T15:09:18.749Z,20.32
2019-02-15T15:11:47.442Z,22.45
2019-02-15T15:14:15.810Z,22.50
2019-02-15T15:16:44.374Z,23.35
2019-02-15T15:19:12.803Z,20.17
2019-02-15T15:21:41.216Z,21.65
2019-02-15T15:24:09.632Z,23.47
2019-02-15T15:26:38.069Z,30.85
2019-02-15T15:29:06.466Z,23.70
2019-02-15T15:31:34.906Z,25.62
2019-02-15T15:34:03.289Z,22.15
2019-02-15T15:36:31.702Z,25.48
2019-02-15T15:39:00.096Z,39.50
2019-02-15T15:41:28.482Z,26.70
2019-02-15T15:43:56.940Z,46.95
2019-02-15T15:46:25.343Z,21.97
2019-02-15T15:48:53.770Z,18.37
2019-02-15T15:51:22.189Z,21.10
2019-02-15T15:53:50.641Z,21.30
2019-02-15T15:56:19.022Z,16.02
2019-02-15T15:58:47.427Z,21.10
2019-02-15T16:01:15.882Z,24.05
2019-02-15T16:03:44.273Z,28.20
2019-02-15T16:06:12.700Z,20.08
2019-02-15T16:08:41.095Z,25.45
2019-02-15T16:11:09.512Z,22.40
2019-02-15T16:13:37.948Z,22.22
2019-02-15T16:16:06.326Z,21.27
2019-02-15T16:18:35.161Z,22.40
2019-02-15T16:21:03.613Z,30.02
2019-02-15T16:23:32.031Z,40.70
2019-02-15T16:26:00.418Z,40.20
2019-02-15T16:28:28.844Z,33.98
2019-02-15T16:30:57.254Z,36.63
2019-02-15T16:33:25.848Z,19.20
2019-02-15T16:35:54.231Z,25.92
2019-02-15T16:38:22.604Z,34.92
2019-02-15T16:40:51.021Z,30.45
2019-02-15T16:43:19.394Z,36.65
2019-02-15T16:45:47.813Z,26.55
2019-02-15T16:48:16.188Z,36.40
2019-02-15T16:50:44.613Z,52.83
2019-02-15T16:53:12.978Z,57.03
2019-02-15T16:55:42.521Z,64.95
2019-02-15T16:58:10.959Z,57.00
2019-02-15T17:00:39.306Z,62.23
2019-02-15T17:03:07.720Z,48.70
2019-02-15T17:05:36.144Z,35.75
2019-02-15T17:08:04.540Z,42.80
2019-02-15T17:10:37.528Z,71.33
2019-02-15T17:13:05.991Z,63.15
2019-02-15T17:15:34.425Z,73.62
2019-02-15T17:18:02.860Z,76.12
2019-02-15T17:20:32.844Z,73.57
2019-02-15T17:23:01.244Z,97.42
2019-02-15T17:25:29.649Z,101.18
2019-02-15T17:27:58.051Z,115.35
2019-02-15T17:30:28.194Z,147.53
2019-02-15T17:32:56.633Z,107.52
2019-02-15T17:35:25.004Z,104.17
2019-02-15T17:37:53.387Z,92.67
2019-02-15T17:40:21.869Z,94.75
2019-02-15T17:42:50.239Z,143.07
2019-02-15T17:45:18.645Z,124.60
2019-02-15T17:47:47.062Z,100.00
2019-02-15T17:50:15.442Z,94.15
2019-02-15T17:52:43.904Z,101.22
2019-02-15T17:55:12.309Z,91.25
2019-02-15T17:57:40.708Z,85.92
2019-02-15T18:00:14.543Z,78.25
2019-02-15T18:02:42.999Z,79.55
2019-02-15T18:05:16.906Z,92.40
2019-02-15T18:07:47.255Z,101.07
2019-02-15T18:10:15.655Z,92.60
2019-02-15T18:12:44.038Z,74.10
2019-02-15T18:15:12.461Z,84.20
2019-02-15T18:17:40.845Z,63.68
2019-02-15T18:20:09.528Z,80.17
2019-02-15T18:22:39.348Z,87.65
2019-02-15T18:25:23.345Z,78.15
2019-02-15T18:29:06.982Z,90.50
2019-02-15T18:30:26.045Z,94.95
2019-02-15T18:32:54.459Z,80.83
2019-02-15T18:35:22.977Z,81.17
2019-02-15T18:37:53.881Z,79.67
2019-02-15T18:40:22.258Z,78.97
2019-02-15T18:42:50.685Z,69.58
2019-02-15T18:45:19.045Z,72.55
2019-02-15T18:47:47.476Z,79.82
2019-02-15T18:50:15.873Z,84.28
2019-02-15T18:52:44.252Z,76.28
2019-02-15T18:55:12.834Z,65.72
2019-02-15T18:57:41.287Z,69.32
2019-02-15T19:00:15.539Z,67.15
2019-02-15T19:02:45.760Z,87.65
2019-02-15T19:05:14.362Z,83.58
2019-02-15T19:07:42.825Z,73.47
2019-02-15T19:10:14.299Z,80.05
2019-02-15T19:12:42.709Z,99.40
2019-02-15T19:15:13.682Z,80.55
2019-02-15T19:17:42.056Z,77.27
2019-02-15T19:20:12.627Z,74.17
2019-02-15T19:22:41.022Z,81.02
2019-02-15T19:25:14.372Z,60.83
2019-02-15T19:27:42.947Z,70.40
2019-02-15T19:30:14.099Z,73.37
2019-02-15T19:32:42.619Z,73.30
2019-02-15T19:35:11.194Z,68.12
2019-02-15T19:37:39.643Z,63.50
2019-02-15T19:40:10.987Z,69.40
2019-02-15T19:42:40.381Z,67.25
2019-02-15T19:45:11.019Z,74.67
2019-02-15T19:47:39.424Z,64.75
2019-02-15T19:50:10.911Z,73.70
2019-02-15T19:52:41.027Z,69.45
2019-02-15T19:55:10.573Z,55.23
2019-02-15T19:57:42.053Z,61.05
2019-02-15T20:00:19.167Z,62.88
2019-02-15T20:02:47.577Z,77.87
2019-02-15T20:05:15.969Z,60.05
2019-02-15T20:07:44.440Z,66.40
2019-02-15T20:10:22.283Z,275.20
2019-02-15T20:12:50.690Z,161.32
2019-02-15T20:15:19.090Z,74.25
2019-02-15T20:17:47.515Z,79.75
2019-02-15T20:20:17.403Z,76.30
2019-02-15T20:22:46.076Z,75.90
2019-02-15T20:25:14.513Z,67.90
2019-02-15T20:27:42.949Z,63.42
2019-02-15T20:30:20.519Z,101.67
2019-02-15T20:32:48.938Z,65.67
2019-02-15T20:35:17.393Z,64.25
2019-02-15T20:37:45.772Z,69.77
2019-02-15T20:40:14.451Z,63.13
2019-02-15T20:42:42.837Z,61.45
2019-02-15T20:45:22.471Z,69.45
2019-02-15T20:47:50.884Z,67.75
2019-02-15T20:50:19.506Z,65.65
2019-02-15T20:52:47.938Z,65.37
2019-02-15T20:55:18.040Z,62.75
2019-02-15T20:57:46.493Z,69.40
2019-02-15T21:00:30.719Z,75.97
2019-02-15T21:02:59.278Z,74.75
2019-02-15T21:05:27.663Z,85.40
2019-02-15T21:07:56.056Z,82.75
2019-02-15T21:10:24.454Z,89.07
2019-02-15T21:12:52.899Z,102.65
2019-02-15T21:15:21.285Z,98.22
2019-02-15T21:17:49.674Z,88.05
2019-02-15T21:20:18.071Z,100.70
2019-02-15T21:22:46.495Z,106.45
2019-02-15T21:25:18.061Z,136.85
2019-02-15T21:27:46.459Z,117.93
2019-02-15T21:30:16.446Z,117.65
2019-02-15T21:32:44.837Z,177.72
2019-02-15T21:35:13.257Z,163.00
2019-02-15T21:37:41.669Z,124.82
2019-02-15T21:40:12.553Z,129.40
2019-02-15T21:42:40.951Z,128.57
2019-02-15T21:45:10.823Z,130.45
2019-02-15T21:47:39.203Z,138.77
2019-02-15T21:50:17.158Z,139.82
2019-02-15T21:52:44.273Z,157.82
2019-02-15T21:55:13.744Z,141.45
2019-02-15T21:57:42.161Z,159.75
2019-02-15T22:00:21.422Z,131.52
2019-02-15T22:02:49.960Z,155.85
2019-02-15T22:05:18.373Z,148.00
2019-02-15T22:07:46.792Z,123.72
2019-02-15T22:10:15.190Z,102.70
2019-02-15T22:12:43.774Z,100.18
2019-02-15T22:15:13.883Z,89.22
2019-02-15T22:17:42.282Z,110.00
2019-02-15T22:20:13.602Z,110.15
2019-02-15T22:22:42.015Z,113.83
2019-02-15T22:25:10.399Z,114.10
2019-02-15T22:27:38.805Z,122.95
2019-02-15T22:30:13.345Z,126.10
2019-02-15T22:35:11.037Z,98.50
2019-02-15T22:37:41.566Z,91.92
2019-02-15T22:40:27.597Z,84.87
2019-02-15T22:42:57.522Z,80.92
2019-02-15T22:45:25.919Z,91.82
2019-02-15T22:47:54.306Z,95.50
2019-02-15T22:50:25.067Z,84.13
2019-02-15T22:52:53.458Z,88.45
2019-02-15T22:55:21.873Z,85.70
2019-02-15T22:57:50.375Z,78.55
2019-02-15T23:00:24.643Z,84.75
2019-02-15T23:02:53.047Z,82.92
2019-02-15T23:05:21.476Z,80.03
2019-02-15T23:07:49.861Z,87.75
2019-02-15T23:10:18.255Z,90.00
2019-02-15T23:12:46.681Z,90.67
2019-02-15T23:15:15.064Z,91.22
2019-02-15T23:17:43.444Z,101.22
2019-02-15T23:20:11.868Z,102.82
2019-02-15T23:22:40.462Z,114.55
2019-02-15T23:25:08.911Z,129.93
2019-02-15T23:27:44.688Z,139.30
2019-02-15T23:30:13.111Z,130.45
2019-02-15T23:32:41.499Z,121.30
2019-02-15T23:35:11.540Z,114.82
2019-02-15T23:37:39.929Z,105.10
2019-02-15T23:40:08.353Z,108.47
2019-02-15T23:42:36.749Z,126.80
2019-02-15T23:45:07.457Z,117.10
2019-02-15T23:47:35.855Z,115.92
2019-02-15T23:50:05.688Z,111.35
2019-02-15T23:52:34.105Z,118.60
2019-02-15T23:55:02.507Z,114.72
2019-02-15T23:57:30.913Z,104.40
2019-02-15T23:59:59.306Z,127.50
